Peter R. Cresswell — VCBZ — position and weather

sailwx.info

Track history (hours):
 
Tides and Currents Weather Stations Pressure Air Temp Water Temp Dewpoint Dewpoint Depression Visibility Wind Speed Wind Dir Waves Ship Positions

Peter R. Cresswell

ex Algowest

Last reported at 2015-Feb-01 22:31 UTC. Time now 2015-Feb-01 22:47 UTC.
Position N 45°45' W 083°57'.

Length 219.2 m; beam 23.2 m; draft 8.7 m.

Type: Ship. MMSI: 316001697.

Date/timePositionNaut miles runAvg speedWind from/ knotsBaromVisibWave heightAir tempDewpointWater temp
2015-Feb-01 22:31N 45°45' W 083°57'  
2015-Jan-29 04:33N 45°48' W 084°02'1010.0
2015-Jan-29 03:33N 45°51' W 084°15'8 7.8
2015-Jan-29 02:33N 45°52' W 084°26'7 6.7
2015-Jan-29 01:33N 45°51' W 084°36'10 9.9
2015-Jan-29 00:33N 45°50' W 084°50'9 9.4
2015-Jan-28 23:33N 45°52' W 085°03'7 7.5
2015-Jan-28 22:34N 45°52' W 085°14'8 7.7
2015-Jan-28 21:33N 45°53' W 085°25'8 7.9
2015-Jan-28 20:33N 45°53' W 085°36'4 4.3
2015-Jan-28 19:33N 45°50' W 085°42'9 9.2
2015-Jan-28 18:34N 45°46' W 085°53'1211.7
2015-Jan-28 17:34N 45°37' W 086°04'1312.5
2015-Jan-28 16:33N 45°26' W 086°12'1212.5
2015-Jan-28 15:33N 45°14' W 086°19'1512.5
2015-Jan-28 14:20N 45°01' W 086°29'1012.4
2015-Jan-28 13:33N 44°52' W 086°35'1612.4
2015-Jan-28 12:16N 44°38' W 086°45'1012.5
2015-Jan-28 11:28N 44°29' W 086°51'56 1.6
2015-Jan-26 23:34N 45°21' W 086°20'1211.5
2015-Jan-26 22:33N 45°31' W 086°13'1111.4
2015-Jan-26 21:33N 45°41' W 086°06'1211.6
2015-Jan-26 20:33N 45°47' W 085°51'1111.5
2015-Jan-26 19:34N 45°52' W 085°37'9 8.9
2015-Jan-26 18:34N 45°53' W 085°24'1 0.7
2015-Jan-26 17:34N 45°53' W 085°23'8 8.0
2015-Jan-26 16:33N 45°52' W 085°11'3 2.9
2015-Jan-26 15:34N 45°52' W 085°07'2 1.8
2015-Jan-26 14:33N 45°52' W 085°05'3 2.8
2015-Jan-26 13:33N 45°51' W 085°01'0 0.0
2015-Jan-26 12:33N 45°51' W 085°01'0 0.0
2015-Jan-26 11:33N 45°51' W 085°01'0 0.0
2015-Jan-26 10:33N 45°51' W 085°01'0 0.0
2015-Jan-26 09:33N 45°51' W 085°01'0 0.0
2015-Jan-26 08:33N 45°51' W 085°01'0 0.0
2015-Jan-26 07:34N 45°51' W 085°01'0 0.0
2015-Jan-26 06:33N 45°51' W 085°01'0 0.0
2015-Jan-26 05:34N 45°51' W 085°01'0 0.0
2015-Jan-26 04:33N 45°51' W 085°01'0 0.0
2015-Jan-26 03:33N 45°51' W 085°01'0 0.0
2015-Jan-26 02:33N 45°51' W 085°01'0 0.0
2015-Jan-26 01:33N 45°51' W 085°01'0 0.0
2015-Jan-26 00:34N 45°51' W 085°01'0 0.4
2015-Jan-25 23:33N 45°51' W 085°00'3 2.5
2015-Jan-25 22:33N 45°51' W 084°57'2 2.5
2015-Jan-25 21:34N 45°50' W 084°53'8 8.3
2015-Jan-25 20:33N 45°49' W 084°42'6 5.6
2015-Jan-25 19:33N 45°51' W 084°34'0 0.5
2015-Jan-25 18:33N 45°51' W 084°35'0 0.1
2015-Jan-25 17:33N 45°51' W 084°35'0 0.2
2015-Jan-25 16:33N 45°51' W 084°35'0 0.2
2015-Jan-25 15:33N 45°51' W 084°35'0 0.2
2015-Jan-25 14:33N 45°51' W 084°35'0 0.2
2015-Jan-25 13:33N 45°51' W 084°35'0 0.1
2015-Jan-25 12:33N 45°51' W 084°35'0 0.1
2015-Jan-25 11:33N 45°51' W 084°35'9 9.1
2015-Jan-25 10:33N 45°51' W 084°22'1110.9
2015-Jan-25 09:34N 45°48' W 084°07'  
Track history (hours):
 
Tides and Currents Weather Stations Pressure Air Temp Water Temp Dewpoint Dewpoint Depression Visibility Wind Speed Wind Dir Waves Ship Positions

Peter R. Cresswell

ex Algowest

Last reported at 2015-Feb-01 22:31 UTC. Time now 2015-Feb-01 22:47 UTC.
Position N 45°45' W 083°57'.

Length 219.2 m; beam 23.2 m; draft 8.7 m.

Type: Ship. MMSI: 316001697.

Date/timePositionNaut miles runAvg speedWind from/ knotsBaromVisibWave heightAir tempDewpointWater temp
2015-Feb-01 22:31N 45°45' W 083°57'  
2015-Jan-29 04:33N 45°48' W 084°02'1010.0
2015-Jan-29 03:33N 45°51' W 084°15'8 7.8
2015-Jan-29 02:33N 45°52' W 084°26'7 6.7
2015-Jan-29 01:33N 45°51' W 084°36'10 9.9
2015-Jan-29 00:33N 45°50' W 084°50'9 9.4
2015-Jan-28 23:33N 45°52' W 085°03'7 7.5
2015-Jan-28 22:34N 45°52' W 085°14'8 7.7
2015-Jan-28 21:33N 45°53' W 085°25'8 7.9
2015-Jan-28 20:33N 45°53' W 085°36'4 4.3
2015-Jan-28 19:33N 45°50' W 085°42'9 9.2
2015-Jan-28 18:34N 45°46' W 085°53'1211.7
2015-Jan-28 17:34N 45°37' W 086°04'1312.5
2015-Jan-28 16:33N 45°26' W 086°12'1212.5
2015-Jan-28 15:33N 45°14' W 086°19'1512.5
2015-Jan-28 14:20N 45°01' W 086°29'1012.4
2015-Jan-28 13:33N 44°52' W 086°35'1612.4
2015-Jan-28 12:16N 44°38' W 086°45'1012.5
2015-Jan-28 11:28N 44°29' W 086°51'56 1.6
2015-Jan-26 23:34N 45°21' W 086°20'1211.5
2015-Jan-26 22:33N 45°31' W 086°13'1111.4
2015-Jan-26 21:33N 45°41' W 086°06'1211.6
2015-Jan-26 20:33N 45°47' W 085°51'1111.5
2015-Jan-26 19:34N 45°52' W 085°37'9 8.9
2015-Jan-26 18:34N 45°53' W 085°24'1 0.7
2015-Jan-26 17:34N 45°53' W 085°23'8 8.0
2015-Jan-26 16:33N 45°52' W 085°11'3 2.9
2015-Jan-26 15:34N 45°52' W 085°07'2 1.8
2015-Jan-26 14:33N 45°52' W 085°05'3 2.8
2015-Jan-26 13:33N 45°51' W 085°01'0 0.0
2015-Jan-26 12:33N 45°51' W 085°01'0 0.0
2015-Jan-26 11:33N 45°51' W 085°01'0 0.0
2015-Jan-26 10:33N 45°51' W 085°01'0 0.0
2015-Jan-26 09:33N 45°51' W 085°01'0 0.0
2015-Jan-26 08:33N 45°51' W 085°01'0 0.0
2015-Jan-26 07:34N 45°51' W 085°01'0 0.0
2015-Jan-26 06:33N 45°51' W 085°01'0 0.0
2015-Jan-26 05:34N 45°51' W 085°01'0 0.0
2015-Jan-26 04:33N 45°51' W 085°01'0 0.0
2015-Jan-26 03:33N 45°51' W 085°01'0 0.0
2015-Jan-26 02:33N 45°51' W 085°01'0 0.0
2015-Jan-26 01:33N 45°51' W 085°01'0 0.0
2015-Jan-26 00:34N 45°51' W 085°01'0 0.4
2015-Jan-25 23:33N 45°51' W 085°00'3 2.5
2015-Jan-25 22:33N 45°51' W 084°57'2 2.5
2015-Jan-25 21:34N 45°50' W 084°53'8 8.3
2015-Jan-25 20:33N 45°49' W 084°42'6 5.6
2015-Jan-25 19:33N 45°51' W 084°34'0 0.5
2015-Jan-25 18:33N 45°51' W 084°35'0 0.1
2015-Jan-25 17:33N 45°51' W 084°35'0 0.2
2015-Jan-25 16:33N 45°51' W 084°35'0 0.2
2015-Jan-25 15:33N 45°51' W 084°35'0 0.2
2015-Jan-25 14:33N 45°51' W 084°35'0 0.2
2015-Jan-25 13:33N 45°51' W 084°35'0 0.1
2015-Jan-25 12:33N 45°51' W 084°35'0 0.1
2015-Jan-25 11:33N 45°51' W 084°35'9 9.1
2015-Jan-25 10:33N 45°51' W 084°22'1110.9
2015-Jan-25 09:34N 45°48' W 084°07'  

Dump ship's entire track history